createdAt,value
2022-10-19T00:02:09.641Z,102755.22
2022-10-19T00:04:36.683Z,102757.16
2022-10-19T00:07:03.091Z,102769.59
2022-10-19T00:09:29.520Z,102764.56
2022-10-19T00:11:55.959Z,102770.00
2022-10-19T00:14:23.878Z,102761.06
2022-10-19T00:16:52.529Z,102761.84
2022-10-19T00:19:23.442Z,102759.88
2022-10-19T00:24:17.790Z,102764.56
2022-10-19T00:26:45.401Z,102752.13
2022-10-19T00:29:13.350Z,102759.13
2022-10-19T00:31:40.877Z,102758.34
2022-10-19T00:34:07.350Z,102764.22
2022-10-19T00:36:41.754Z,102763.06
2022-10-19T00:39:12.058Z,102763.84
2022-10-19T00:41:39.113Z,102764.63
2022-10-19T00:44:07.394Z,102770.06
2022-10-19T00:46:37.306Z,102768.88
2022-10-19T00:49:10.816Z,102779.78
2022-10-19T00:51:40.788Z,102781.38
2022-10-19T00:54:09.087Z,102772.44
2022-10-19T00:56:39.157Z,102772.44
2022-10-19T00:59:06.598Z,102774.38
2022-10-19T01:01:34.014Z,102772.84
2022-10-19T01:04:01.869Z,102774.81
2022-10-19T01:06:28.647Z,102768.59
2022-10-19T01:08:55.091Z,102779.47
2022-10-19T01:11:27.238Z,102774.81
2022-10-19T01:14:10.116Z,102775.97
2022-10-19T01:16:43.361Z,102783.75
2022-10-19T01:19:34.033Z,102790.38
2022-10-19T01:22:13.913Z,102788.06
2022-10-19T01:24:56.766Z,102779.88
2022-10-19T01:27:51.938Z,102779.53
2022-10-19T01:30:28.679Z,102781.88
2022-10-19T01:33:00.086Z,102773.31
2022-10-19T01:36:20.683Z,102771.00
2022-10-19T01:38:58.072Z,102778.00
2022-10-19T01:41:40.649Z,102776.44
2022-10-19T01:44:09.741Z,102773.72
2022-10-19T01:46:41.183Z,102769.50
2022-10-19T01:49:20.253Z,102776.13
2022-10-19T01:51:51.878Z,102774.16
2022-10-19T01:54:19.540Z,102769.88
2022-10-19T01:56:48.402Z,102769.50
2022-10-19T01:59:18.207Z,102767.97
2022-10-19T02:01:47.405Z,102767.16
2022-10-19T02:04:17.269Z,102766.38
2022-10-19T02:06:44.249Z,102768.72
2022-10-19T02:09:17.802Z,102763.28
2022-10-19T02:11:53.408Z,102759.00
2022-10-19T02:14:27.323Z,102761.31
2022-10-19T02:16:59.241Z,102761.72
2022-10-19T02:19:25.753Z,102766.38
2022-10-19T02:21:52.462Z,102760.19
2022-10-19T02:24:18.919Z,102766.38
2022-10-19T02:26:46.020Z,102767.56
2022-10-19T02:29:15.249Z,102765.63
2022-10-19T02:31:42.088Z,102761.81
2022-10-19T02:34:09.315Z,102769.56
2022-10-19T02:36:36.778Z,102770.69
2022-10-19T02:39:04.286Z,102761.38
2022-10-19T02:41:52.511Z,102769.13
2022-10-19T02:44:34.780Z,102778.13
2022-10-19T02:47:06.930Z,102778.91
2022-10-19T02:49:36.571Z,102785.13
2022-10-19T02:52:09.446Z,102776.19
2022-10-19T02:54:37.864Z,102776.19
2022-10-19T02:57:18.181Z,102778.91
2022-10-19T02:59:44.880Z,102774.66
2022-10-19T03:02:11.543Z,102766.84
2022-10-19T03:04:38.060Z,102775.03
2022-10-19T03:07:04.758Z,102777.75
2022-10-19T03:09:31.167Z,102775.78
2022-10-19T03:11:57.570Z,102778.19
2022-10-19T03:14:23.990Z,102776.22
2022-10-19T03:16:50.445Z,102778.97
2022-10-19T03:19:16.869Z,102787.53
2022-10-19T03:21:43.302Z,102783.63
2022-10-19T03:24:09.680Z,102790.63
2022-10-19T03:26:36.106Z,102785.59
2022-10-19T03:29:02.608Z,102791.81
2022-10-19T03:31:29.031Z,102791.81
2022-10-19T03:33:55.650Z,102798.78
2022-10-19T03:36:30.567Z,102806.19
2022-10-19T03:38:59.423Z,102804.66
2022-10-19T03:41:28.611Z,102801.91
2022-10-19T03:43:55.209Z,102812.03
2022-10-19T03:46:21.740Z,102813.22
2022-10-19T03:48:48.831Z,102810.50
2022-10-19T03:51:18.306Z,102821.38
2022-10-19T03:53:45.799Z,102823.34
2022-10-19T03:56:15.402Z,102818.66
2022-10-19T03:58:43.648Z,102824.88
2022-10-19T04:01:18.495Z,102829.16
2022-10-19T04:03:45.085Z,102828.78
2022-10-19T04:06:16.941Z,102826.47
2022-10-19T04:08:48.527Z,102836.94
2022-10-19T04:11:20.991Z,102838.91
2022-10-19T04:13:52.207Z,102843.56
2022-10-19T04:16:20.374Z,102847.47
2022-10-19T04:18:47.495Z,102852.94
2022-10-19T04:21:28.050Z,102844.75
2022-10-19T04:24:02.302Z,102843.22
2022-10-19T04:26:29.289Z,102845.53
2022-10-19T04:28:59.266Z,102849.88
2022-10-19T04:31:26.668Z,102848.66
2022-10-19T04:33:53.254Z,102851.38
2022-10-19T04:36:20.037Z,102854.53
2022-10-19T04:38:46.798Z,102858.78
2022-10-19T04:41:17.542Z,102864.63
2022-10-19T04:43:45.349Z,102865.41
2022-10-19T04:46:17.595Z,102872.41
2022-10-19T04:48:45.251Z,102868.50
2022-10-19T04:51:12.300Z,102863.47
2022-10-19T04:53:40.508Z,102869.66
2022-10-19T04:56:08.970Z,102866.59
2022-10-19T04:58:35.700Z,102863.09
2022-10-19T05:01:16.619Z,102863.50
2022-10-19T05:03:43.569Z,102860.78
2022-10-19T05:06:10.666Z,102869.72
2022-10-19T05:08:37.932Z,102873.22
2022-10-19T05:11:07.540Z,102863.50
2022-10-19T05:13:34.520Z,102864.28
2022-10-19T05:16:03.498Z,102865.47
2022-10-19T05:18:30.154Z,102874.38
2022-10-19T05:26:10.390Z,102863.13
2022-10-19T05:28:37.440Z,102867.03
2022-10-19T05:31:08.017Z,102868.19
2022-10-19T05:33:34.777Z,102863.91
2022-10-19T05:36:19.942Z,102861.59
2022-10-19T05:38:50.188Z,102860.06
2022-10-19T05:41:17.430Z,102853.88
2022-10-19T05:43:44.742Z,102857.34
2022-10-19T05:46:14.016Z,102855.38
2022-10-19T05:48:41.030Z,102856.59
2022-10-19T05:51:10.454Z,102851.53
2022-10-19T05:56:06.937Z,102858.94
2022-10-19T05:58:34.104Z,102862.41
2022-10-19T06:01:01.721Z,102856.59
2022-10-19T06:03:29.029Z,102853.09
2022-10-19T06:05:55.928Z,102855.44
2022-10-19T06:08:23.381Z,102855.44
2022-10-19T06:10:50.873Z,102862.41
2022-10-19T06:13:18.827Z,102858.16
2022-10-19T06:15:45.287Z,102862.84
2022-10-19T06:18:12.910Z,102864.38
2022-10-19T06:20:41.970Z,102860.09
2022-10-19T06:23:08.965Z,102865.56
2022-10-19T06:25:36.045Z,102863.69
2022-10-19T06:28:03.223Z,102870.22
2022-10-19T06:30:29.720Z,102870.22
2022-10-19T06:32:56.242Z,102876.44
2022-10-19T06:35:22.857Z,102876.88
2022-10-19T06:37:49.445Z,102875.34
2022-10-19T06:40:16.127Z,102875.66
2022-10-19T06:42:42.543Z,102877.28
2022-10-19T06:45:10.021Z,102887.75
2022-10-19T06:47:37.493Z,102882.72
2022-10-19T06:50:05.619Z,102885.44
2022-10-19T06:52:33.117Z,102891.66
2022-10-19T06:55:02.110Z,102888.16
2022-10-19T06:57:28.736Z,102892.34
2022-10-19T06:59:55.416Z,102897.44
2022-10-19T07:02:21.840Z,102891.59
2022-10-19T07:04:48.344Z,102895.44
2022-10-19T07:07:14.791Z,102894.56
2022-10-19T07:09:41.217Z,102899.97
2022-10-19T07:12:10.649Z,102892.53
2022-10-19T07:14:39.631Z,102898.31
2022-10-19T07:17:07.526Z,102901.75
2022-10-19T07:19:34.872Z,102897.47
2022-10-19T07:22:01.542Z,102900.16
2022-10-19T07:24:28.147Z,102894.63
2022-10-19T07:26:54.967Z,102903.09
2022-10-19T07:29:21.888Z,102900.00
2022-10-19T07:31:48.364Z,102903.09
2022-10-19T07:34:15.316Z,102909.31
2022-10-19T07:36:45.397Z,102916.66
2022-10-19T07:39:12.537Z,102924.34
2022-10-19T07:41:39.357Z,102921.94
2022-10-19T07:44:06.078Z,102928.97
2022-10-19T07:46:37.266Z,102927.00
2022-10-19T07:49:07.084Z,102941.78
2022-10-19T07:51:33.575Z,102944.84
2022-10-19T07:54:00.058Z,102942.50
2022-10-19T07:56:28.349Z,102945.16
2022-10-19T07:58:56.851Z,102941.59
2022-10-19T08:01:26.648Z,102947.00
2022-10-19T08:04:48.725Z,102946.28
2022-10-19T08:06:41.060Z,102948.66
2022-10-19T08:09:07.894Z,102954.84
2022-10-19T08:11:35.499Z,102957.56
2022-10-19T08:14:05.075Z,102957.91
2022-10-19T08:16:33.301Z,102944.66
2022-10-19T08:19:03.535Z,102949.28
2022-10-19T08:21:31.098Z,102941.88
2022-10-19T08:23:57.834Z,102947.72
2022-10-19T08:26:24.900Z,102947.72
2022-10-19T08:28:51.372Z,102949.59
2022-10-19T08:31:20.480Z,102956.16
2022-10-19T08:33:48.790Z,102949.59
2022-10-19T08:36:15.410Z,102948.75
2022-10-19T08:38:44.646Z,102952.97
2022-10-19T08:41:32.922Z,102952.06
2022-10-19T08:44:33.231Z,102960.53
2022-10-19T08:47:31.222Z,102963.56
2022-10-19T08:49:58.678Z,102965.41
2022-10-19T08:52:34.642Z,102969.25
2022-10-19T08:55:13.089Z,102982.91
2022-10-19T08:58:03.147Z,102977.44
2022-10-19T09:00:41.641Z,102980.09
2022-10-19T09:03:37.423Z,102971.56
2022-10-19T09:06:31.910Z,102975.00
2022-10-19T09:08:59.143Z,102972.66
2022-10-19T09:11:31.013Z,102964.13
2022-10-19T09:14:07.695Z,102966.06
2022-10-19T09:16:35.160Z,102968.69
2022-10-19T09:19:02.769Z,102981.91
2022-10-19T09:21:47.293Z,102970.59
2022-10-19T09:24:39.111Z,102973.31
2022-10-19T09:27:10.309Z,102981.50
2022-10-19T09:29:44.808Z,102979.59
2022-10-19T09:32:18.727Z,102984.66
2022-10-19T09:34:58.792Z,102979.59
2022-10-19T09:37:26.749Z,102974.88
2022-10-19T09:39:55.497Z,102988.09
2022-10-19T09:42:30.274Z,102980.25
2022-10-19T09:44:59.331Z,102984.22
2022-10-19T09:47:37.727Z,102978.34
2022-10-19T09:50:22.821Z,102984.94
2022-10-19T09:53:03.691Z,102977.59
2022-10-19T09:55:43.034Z,102987.28
2022-10-19T09:58:15.598Z,102983.06
2022-10-19T10:00:44.979Z,102982.22
2022-10-19T10:03:33.260Z,102991.81
2022-10-19T10:06:05.778Z,102986.28
2022-10-19T10:08:36.432Z,102987.81
2022-10-19T10:11:12.923Z,102994.41
2022-10-19T10:14:00.999Z,102995.59
2022-10-19T10:16:30.377Z,102989.34
2022-10-19T10:21:55.685Z,102997.19
2022-10-19T10:24:33.485Z,102996.00
2022-10-19T10:27:05.628Z,102991.31
2022-10-19T10:29:37.811Z,102999.44
2022-10-19T10:32:16.178Z,103001.81
2022-10-19T10:34:52.844Z,102993.56
2022-10-19T10:37:24.350Z,103002.94
2022-10-19T10:39:57.724Z,103003.34
2022-10-19T10:42:32.614Z,103004.09
2022-10-19T10:44:59.867Z,103005.56
2022-10-19T10:47:28.130Z,103008.69
2022-10-19T10:50:06.745Z,103003.84
2022-10-19T10:52:33.851Z,103008.47
2022-10-19T10:55:10.992Z,103000.47
2022-10-19T10:57:43.437Z,102991.34
2022-10-19T11:00:20.175Z,102987.38
2022-10-19T11:03:00.876Z,102980.66
2022-10-19T11:05:31.773Z,102983.66
2022-10-19T11:08:05.325Z,102991.75
2022-10-19T11:10:39.377Z,102992.13
2022-10-19T11:13:13.808Z,102987.88
2022-10-19T11:15:59.373Z,102981.53
2022-10-19T11:18:34.775Z,102984.25
2022-10-19T11:21:12.951Z,102983.00
2022-10-19T11:23:56.128Z,102991.19
2022-10-19T11:26:53.280Z,102985.34
2022-10-19T11:29:43.001Z,102988.06
2022-10-19T11:32:53.756Z,102964.59
2022-10-19T11:35:29.743Z,102965.28
2022-10-19T11:38:18.265Z,102962.09
2022-10-19T11:41:18.824Z,102960.06
2022-10-19T11:43:54.965Z,102955.06
2022-10-19T11:46:25.457Z,102946.41
2022-10-19T11:49:06.979Z,102945.63
2022-10-19T11:51:52.327Z,102930.72
2022-10-19T11:54:34.016Z,102938.06
2022-10-19T11:57:20.581Z,102931.06
2022-10-19T12:00:15.087Z,102928.25
2022-10-19T12:02:59.344Z,102929.38
2022-10-19T12:05:40.604Z,102925.75
2022-10-19T12:08:13.022Z,102928.84
2022-10-19T12:10:45.643Z,102925.44
2022-10-19T12:13:17.652Z,102920.13
2022-10-19T12:15:53.809Z,102918.84
2022-10-19T12:18:26.119Z,102921.56
2022-10-19T12:20:57.127Z,102914.69
2022-10-19T12:23:31.057Z,102912.06
2022-10-19T12:26:00.025Z,102911.28
2022-10-19T12:28:32.348Z,102908.63
2022-10-19T12:31:00.836Z,102901.28
2022-10-19T12:33:27.285Z,102907.47
2022-10-19T12:36:34.295Z,102902.97
2022-10-19T12:39:03.938Z,102904.94
2022-10-19T12:41:39.125Z,102900.69
2022-10-19T12:44:26.313Z,102894.53
2022-10-19T12:47:00.762Z,102887.50
2022-10-19T12:49:30.422Z,102880.97
2022-10-19T12:51:58.916Z,102882.47
2022-10-19T12:54:28.164Z,102873.97
2022-10-19T12:56:56.469Z,102873.28
2022-10-19T12:59:26.518Z,102869.66
2022-10-19T13:01:54.414Z,102867.81
2022-10-19T13:04:20.787Z,102865.84
2022-10-19T13:06:50.497Z,102871.75
2022-10-19T13:09:44.271Z,102869.44
2022-10-19T13:12:21.284Z,102870.63
2022-10-19T13:14:59.986Z,102871.81
2022-10-19T13:17:36.857Z,102865.63
2022-10-19T13:20:15.336Z,102868.41
2022-10-19T13:22:49.011Z,102868.84
2022-10-19T13:25:23.809Z,102875.06
2022-10-19T13:27:51.921Z,102861.34
2022-10-19T13:30:36.890Z,102867.66
2022-10-19T13:33:31.004Z,102866.19
2022-10-19T13:36:00.551Z,102865.06
2022-10-19T13:38:37.940Z,102855.00
2022-10-19T13:41:06.464Z,102849.97
2022-10-19T13:43:51.573Z,102850.06
2022-10-19T13:46:23.734Z,102851.69
2022-10-19T13:48:56.034Z,102847.03
2022-10-19T13:51:41.270Z,102849.09
2022-10-19T13:54:34.571Z,102856.94
2022-10-19T13:57:16.241Z,102848.03
2022-10-19T14:00:24.791Z,102853.19
2022-10-19T14:03:04.447Z,102850.53
2022-10-19T14:06:15.105Z,102840.88
2022-10-19T14:08:56.597Z,102847.16
2022-10-19T14:11:35.969Z,102841.34
2022-10-19T14:14:11.332Z,102844.53
2022-10-19T14:16:59.661Z,102841.88
2022-10-19T14:19:42.198Z,102836.03
2022-10-19T14:22:19.313Z,102834.94
2022-10-19T14:24:45.778Z,102831.47
2022-10-19T14:27:19.168Z,102829.56
2022-10-19T14:29:48.245Z,102819.84
2022-10-19T14:32:15.481Z,102825.31
2022-10-19T14:34:43.513Z,102829.63
2022-10-19T14:37:25.854Z,102832.38
2022-10-19T14:40:01.740Z,102824.59
2022-10-19T14:42:43.816Z,102828.50
2022-10-19T14:45:23.195Z,102828.16
2022-10-19T14:47:53.022Z,102825.44
2022-10-19T14:50:23.479Z,102825.84
2022-10-19T14:52:52.245Z,102828.25
2022-10-19T14:55:20.987Z,102823.66
2022-10-19T14:57:50.103Z,102823.19
2022-10-19T15:00:24.031Z,102827.88
2022-10-19T15:03:03.391Z,102829.50
2022-10-19T15:05:34.395Z,102830.66
2022-10-19T15:08:32.467Z,102824.91
2022-10-19T15:10:59.143Z,102826.44
2022-10-19T15:13:32.807Z,102825.66
2022-10-19T15:15:59.257Z,102831.94
2022-10-19T15:18:50.372Z,102816.44
2022-10-19T15:21:22.633Z,102826.16
2022-10-19T15:23:51.803Z,102823.84
2022-10-19T15:26:26.958Z,102817.66
2022-10-19T15:28:55.312Z,102814.53
2022-10-19T15:31:26.228Z,102824.66
2022-10-19T15:33:55.659Z,102825.13
2022-10-19T15:36:23.383Z,102831.34
2022-10-19T15:39:11.394Z,102833.69
2022-10-19T15:41:46.318Z,102828.22
2022-10-19T15:44:45.100Z,102824.41
2022-10-19T15:47:19.024Z,102818.97
2022-10-19T15:49:45.855Z,102830.28
2022-10-19T15:52:23.070Z,102825.97
2022-10-19T15:54:55.015Z,102817.81
2022-10-19T15:57:27.679Z,102821.75
2022-10-19T15:59:56.127Z,102814.75
2022-10-19T16:02:25.008Z,102814.38
2022-10-19T16:04:53.640Z,102821.03
2022-10-19T16:07:29.133Z,102811.31
2022-10-19T16:09:55.837Z,102816.78
2022-10-19T16:12:23.733Z,102815.69
2022-10-19T16:14:50.263Z,102814.47
2022-10-19T16:17:16.759Z,102822.28
2022-10-19T16:19:43.792Z,102824.66
2022-10-19T16:22:11.108Z,102831.31
2022-10-19T16:24:37.551Z,102833.59
2022-10-19T16:27:04.330Z,102833.59
2022-10-19T16:29:33.105Z,102833.28
2022-10-19T16:31:59.519Z,102837.56
2022-10-19T16:34:25.920Z,102831.72
2022-10-19T16:36:52.395Z,102829.06
2022-10-19T16:39:18.936Z,102833.34
2022-10-19T16:41:45.466Z,102826.00
2022-10-19T16:44:12.588Z,102830.22
2022-10-19T16:46:39.261Z,102824.78
2022-10-19T16:49:05.773Z,102831.84
2022-10-19T16:51:36.657Z,102822.56
2022-10-19T16:54:04.976Z,102824.88
2022-10-19T16:56:32.748Z,102813.97
2022-10-19T16:59:02.557Z,102814.75
2022-10-19T17:01:30.665Z,102811.31
2022-10-19T17:03:57.528Z,102815.91
2022-10-19T17:06:24.816Z,102815.56
2022-10-19T17:11:39.152Z,102809.78
2022-10-19T17:14:08.114Z,102814.84
2022-10-19T17:16:36.411Z,102804.81
2022-10-19T17:19:05.335Z,102800.16
2022-10-19T17:21:34.463Z,102811.03
2022-10-19T17:24:02.648Z,102809.47
2022-10-19T17:26:41.944Z,102814.50
2022-10-19T17:29:09.711Z,102801.72
2022-10-19T17:31:37.002Z,102810.28
2022-10-19T17:34:04.281Z,102822.72
2022-10-19T17:36:33.259Z,102810.66
2022-10-19T17:39:04.209Z,102818.50
2022-10-19T17:41:31.106Z,102817.34
2022-10-19T17:43:57.903Z,102827.84
2022-10-19T17:46:27.711Z,102824.75
2022-10-19T17:48:54.451Z,102837.63
2022-10-19T17:51:32.358Z,102834.53
2022-10-19T17:54:01.556Z,102822.47
2022-10-19T17:56:28.513Z,102829.09
2022-10-19T17:58:56.494Z,102829.09
2022-10-19T18:01:23.526Z,102830.25
2022-10-19T18:03:50.550Z,102830.25
2022-10-19T18:06:18.633Z,102827.19
2022-10-19T18:08:48.256Z,102832.66
2022-10-19T18:11:17.485Z,102829.56
2022-10-19T18:13:44.563Z,102831.50
2022-10-19T18:16:14.189Z,102831.50
2022-10-19T18:18:42.749Z,102831.09
2022-10-19T18:21:13.337Z,102826.06
2022-10-19T18:23:40.220Z,102829.56
2022-10-19T18:26:09.919Z,102830.38
2022-10-19T18:28:37.245Z,102832.75
2022-10-19T18:31:19.530Z,102836.28
2022-10-19T18:33:47.178Z,102836.28
2022-10-19T18:36:13.643Z,102838.19
2022-10-19T18:38:40.173Z,102834.69
2022-10-19T18:43:51.407Z,102842.09
2022-10-19T18:46:19.488Z,102837.06
2022-10-19T18:48:46.349Z,102839.06
2022-10-19T18:51:14.427Z,102841.78
2022-10-19T18:53:41.600Z,102850.31
2022-10-19T18:56:10.504Z,102838.66
2022-10-19T18:58:37.615Z,102842.16
2022-10-19T19:01:11.772Z,102840.63
2022-10-19T19:03:40.221Z,102843.34
2022-10-19T19:06:09.438Z,102837.56
2022-10-19T19:08:36.364Z,102838.34
2022-10-19T19:11:10.611Z,102835.22
2022-10-19T19:13:37.807Z,102837.19
2022-10-19T19:16:04.526Z,102830.97
2022-10-19T19:18:33.706Z,102830.97
2022-10-19T19:21:04.577Z,102834.44
2022-10-19T19:23:31.344Z,102827.47
2022-10-19T19:25:57.753Z,102831.72
2022-10-19T19:28:24.217Z,102829.00
2022-10-19T19:30:50.643Z,102822.47
2022-10-19T19:33:17.108Z,102820.50
2022-10-19T19:35:47.790Z,102825.56
2022-10-19T19:38:15.460Z,102825.56
2022-10-19T19:40:43.514Z,102818.59
2022-10-19T19:43:10.931Z,102826.75
2022-10-19T19:45:37.577Z,102826.75
2022-10-19T19:48:04.684Z,102824.47
2022-10-19T19:50:32.093Z,102824.47
2022-10-19T19:52:59.493Z,102820.97
2022-10-19T19:55:26.420Z,102824.09
2022-10-19T19:57:54.429Z,102823.69
2022-10-19T20:00:22.208Z,102821.38
2022-10-19T20:02:53.081Z,102823.34
2022-10-19T20:05:19.706Z,102823.34
2022-10-19T20:07:46.741Z,102819.06
2022-10-19T20:10:16.139Z,102820.25
2022-10-19T20:12:43.618Z,102813.28
2022-10-19T20:15:15.409Z,102812.09
2022-10-19T20:17:42.340Z,102810.97
2022-10-19T20:20:10.212Z,102805.53
2022-10-19T20:22:36.974Z,102800.88
2022-10-19T20:25:04.458Z,102799.31
2022-10-19T20:27:34.037Z,102803.22
2022-10-19T20:30:00.568Z,102804.75
2022-10-19T20:32:28.250Z,102794.28
2022-10-19T20:34:54.926Z,102795.44
2022-10-19T20:37:21.698Z,102786.53
2022-10-19T20:39:48.957Z,102781.09
2022-10-19T20:42:17.506Z,102778.41
2022-10-19T20:44:44.274Z,102782.63
2022-10-19T20:47:11.396Z,102773.72
2022-10-19T20:52:04.473Z,102765.56
2022-10-19T20:54:30.941Z,102771.00
2022-10-19T20:56:57.380Z,102762.06
2022-10-19T20:59:27.762Z,102770.25
2022-10-19T21:01:56.970Z,102774.16
2022-10-19T21:04:25.515Z,102771.44
2022-10-19T21:06:52.858Z,102771.44
2022-10-19T21:09:22.298Z,102769.13
2022-10-19T21:11:52.833Z,102776.50
2022-10-19T21:14:25.293Z,102762.91
2022-10-19T21:16:54.927Z,102765.69
2022-10-19T21:19:24.002Z,102766.06
2022-10-19T21:21:55.310Z,102760.25
2022-10-19T21:24:28.133Z,102764.91
2022-10-19T21:26:54.664Z,102757.19
2022-10-19T21:29:21.085Z,102754.41
2022-10-19T21:31:49.784Z,102750.53
2022-10-19T21:34:19.754Z,102747.47
2022-10-19T21:36:46.329Z,102748.25
2022-10-19T21:39:12.773Z,102735.81
2022-10-19T21:41:39.502Z,102740.50
2022-10-19T21:44:05.987Z,102738.59
2022-10-19T21:46:32.441Z,102729.25
2022-10-19T21:48:59.008Z,102721.84
2022-10-19T21:51:47.363Z,102733.94
2022-10-19T21:54:16.552Z,102734.69
2022-10-19T21:56:44.113Z,102734.34
2022-10-19T21:59:12.087Z,102731.63
2022-10-19T22:01:41.119Z,102732.78
2022-10-19T22:04:12.034Z,102733.22
2022-10-19T22:06:38.608Z,102743.69
2022-10-19T22:09:07.463Z,102736.69
2022-10-19T22:11:34.092Z,102729.31
2022-10-19T22:14:02.040Z,102720.38
2022-10-19T22:16:30.152Z,102720.00
2022-10-19T22:18:56.891Z,102727.00
2022-10-19T22:21:28.553Z,102721.97
2022-10-19T22:24:00.905Z,102722.38
2022-10-19T22:26:30.230Z,102719.66
2022-10-19T22:28:58.289Z,102708.78
2022-10-19T22:31:26.252Z,102705.28
2022-10-19T22:33:52.923Z,102702.56
2022-10-19T22:36:19.349Z,102705.69
2022-10-19T22:38:45.990Z,102705.69
2022-10-19T22:41:12.437Z,102707.22
2022-10-19T22:43:38.902Z,102717.00
2022-10-19T22:46:05.333Z,102710.38
2022-10-19T22:48:31.770Z,102714.28
2022-10-19T22:50:58.157Z,102710.81
2022-10-19T22:53:24.855Z,102718.16
2022-10-19T22:55:51.389Z,102718.97
2022-10-19T22:58:18.606Z,102720.13
2022-10-19T23:00:45.065Z,102711.97
2022-10-19T23:03:11.650Z,102706.94
2022-10-19T23:05:38.126Z,102708.13
2022-10-19T23:08:04.731Z,102696.50
2022-10-19T23:10:32.722Z,102691.81
2022-10-19T23:12:59.369Z,102684.41
2022-10-19T23:15:25.857Z,102680.16
2022-10-19T23:17:52.299Z,102684.06
2022-10-19T23:20:18.692Z,102684.06
2022-10-19T23:22:45.170Z,102677.06
2022-10-19T23:25:11.628Z,102684.06
2022-10-19T23:27:38.497Z,102681.72
2022-10-19T23:30:05.617Z,102679.78
2022-10-19T23:32:32.151Z,102668.56
2022-10-19T23:34:58.594Z,102666.63
2022-10-19T23:37:25.036Z,102670.50
2022-10-19T23:39:51.420Z,102667.03
2022-10-19T23:42:17.856Z,102673.63
2022-10-19T23:44:44.339Z,102689.63
2022-10-19T23:47:10.704Z,102681.78
2022-10-19T23:49:37.110Z,102674.06
2022-10-19T23:52:03.800Z,102674.81
2022-10-19T23:54:30.259Z,102668.63
2022-10-19T23:56:56.721Z,102672.84
2022-10-19T23:59:23.224Z,102669.81
